Main page
METAR-TAF:

METAR-TAF

Airports :

Edinburgh, Scotland

Edinburgh Airport

latitude: 55-57N, longitude: 003-21W, elevation: 41 m

Current weather observation

The report was made 44 minutes ago, at 10:20 UTC
Wind 15 kt from the West/Southwest
Temperature 17°C
Humidity 72%
Pressure 998 hPa
Visibility 10 km or more
Scattered clouds at a height of 2600 ft
Broken clouds at a height of 4000 ft

METAR: EGPH 281020Z 24015KT 9999 SCT026 BKN040 17/12 Q0998

Time: 12:04 (11:04 UTC)

Forecast

The report was made 6 hours and 9 minutes ago, at 04:55 UTC
Forecast valid from 28 at 06 UTC to 29 at 06 UTC
Wind 12 kt from the South/Southwest
Visibility 10 km or more
Few clouds at a height of 2000 ft
Probability 30% :
Temporary
from 28 at 06 UTC to 28 at 09 UTC
Visibility: 7000 m
Broken clouds at a height of 1400 ft
light rain
Probability 40% :
Temporary
from 28 at 12 UTC to 28 at 19 UTC
Visibility: 6000 m
rain showers

TAF: EGPH 280455Z 2806/2906 20012KT 9999 FEW020 PROB30 TEMPO 2806/2809 7000 -RA BKN014 PROB40 TEMPO 2812/2819 6000 SHRA

Weather observations and forecasts of more than 4000 airports (METAR and TAF reports).

The available stations are represented by yellow and red dots on the map.

Hover mouse over dot to see the name of the station.

Then click to see weather observations and forecasts.

To change the map : click on the green buttons with a black cross to zoom in, on the green button with a dash to zoom out, or on the green arrows for adjacent maps.


METAR-TAF: